Time;durP1;ratioP1;P1;durP2;ratioP2;P2;SDS_P1;SDS_P2;PMS_P1;PMS_P2;Temp;Humidity;BMP_temperature;BMP_pressure;BME280_temperature;BME280_humidity;BME280_pressure;Samples;Min_cycle;Max_cycle;Signal;HPM_P1;HPM_P2
2022/05/01 00:01:09;;;;;;;15.57;12.75;;;9.50;99.90;;;;;;4273113;28;10000658;-73
2022/05/01 00:03:35;;;;;;;16.67;13.55;;;9.50;99.90;;;;;;4954265;28;20263;-74
2022/05/01 00:06:09;;;;;;;14.80;11.75;;;9.40;99.90;;;;;;4962991;28;20465;-74
2022/05/01 00:08:37;;;;;;;14.50;12.50;;;9.40;99.90;;;;;;4963367;28;20181;-73
2022/05/01 00:11:03;;;;;;;16.17;12.57;;;9.40;99.90;;;;;;4957901;28;20064;-74
2022/05/01 00:13:29;;;;;;;18.42;12.82;;;9.40;99.90;;;;;;4967412;28;20490;-76
2022/05/01 00:15:56;;;;;;;14.40;11.70;;;9.30;99.90;;;;;;4970557;28;20034;-74
2022/05/01 00:18:21;;;;;;;17.02;12.85;;;9.30;99.90;;;;;;4963394;28;20035;-75
2022/05/01 00:20:47;;;;;;;15.27;12.40;;;9.30;99.90;;;;;;4959280;28;20386;-74
2022/05/01 00:23:13;;;;;;;18.80;13.45;;;9.30;99.90;;;;;;4961797;28;20054;-75
2022/05/01 00:25:41;;;;;;;15.68;13.15;;;9.20;99.90;;;;;;4963502;28;20031;-74
2022/05/01 00:28:10;;;;;;;18.15;13.40;;;9.20;99.90;;;;;;4959833;28;20058;-75
2022/05/01 00:30:36;;;;;;;14.85;12.45;;;9.10;99.90;;;;;;4965721;28;20376;-74
2022/05/01 00:38:31;;;;;;;16.10;13.13;;;9.10;99.90;;;;;;4961935;28;20105;-75
2022/05/01 00:40:57;;;;;;;14.55;12.57;;;9.10;99.90;;;;;;4955952;28;20170;-74
2022/05/01 00:43:23;;;;;;;15.63;12.65;;;9.10;99.90;;;;;;4962694;28;20317;-74
2022/05/01 00:45:49;;;;;;;14.80;12.68;;;9.10;99.90;;;;;;4960980;28;20075;-74
2022/05/01 00:48:15;;;;;;;15.57;12.20;;;9.00;99.90;;;;;;4969628;28;20129;-73
2022/05/01 00:50:43;;;;;;;17.63;13.93;;;9.00;99.90;;;;;;4960855;28;20126;-74
2022/05/01 00:53:10;;;;;;;18.70;13.73;;;9.00;99.90;;;;;;4964229;28;20034;-74
2022/05/01 00:55:36;;;;;;;15.45;13.20;;;9.00;99.90;;;;;;4957674;28;20057;-74
2022/05/01 00:58:05;;;;;;;19.58;14.60;;;9.00;99.90;;;;;;4959426;28;20031;-74
2022/05/01 01:00:30;;;;;;;14.98;13.10;;;9.00;99.90;;;;;;4948927;28;20030;-74
2022/05/01 01:02:56;;;;;;;18.15;13.95;;;9.00;99.90;;;;;;4967645;28;20102;-74
2022/05/01 01:05:22;;;;;;;17.95;14.98;;;9.00;99.90;;;;;;4962859;28;20363;-74
2022/05/01 01:07:47;;;;;;;17.55;13.98;;;9.10;99.90;;;;;;4964376;28;20104;-74
2022/05/01 01:10:13;;;;;;;17.38;13.82;;;9.00;99.90;;;;;;4964580;28;20027;-74
2022/05/01 01:12:55;;;;;;;21.92;14.68;;;9.00;99.90;;;;;;4958609;28;20037;-74
2022/05/01 01:15:28;;;;;;;17.75;14.10;;;9.00;99.90;;;;;;4959599;28;20027;-74
2022/05/01 01:17:54;;;;;;;17.65;14.57;;;9.10;99.90;;;;;;4962798;28;20426;-74
2022/05/01 01:20:21;;;;;;;16.33;14.30;;;9.00;99.90;;;;;;4961689;28;20110;-74
2022/05/01 01:22:50;;;;;;;16.35;13.38;;;9.00;99.90;;;;;;4955648;28;20411;-75
2022/05/01 01:25:20;;;;;;;15.77;11.65;;;9.10;99.90;;;;;;4959201;28;20526;-74
2022/05/01 01:27:47;;;;;;;16.30;11.00;;;9.10;99.90;;;;;;4961086;28;20025;-74
2022/05/01 01:33:12;;;;;;;12.45;9.77;;;9.30;99.90;;;;;;4939549;28;20074;-74
2022/05/01 01:35:38;;;;;;;12.13;9.05;;;9.40;99.90;;;;;;4954993;28;20482;-75
2022/05/01 01:38:04;;;;;;;9.50;8.27;;;9.50;99.90;;;;;;4958391;28;20152;-74
2022/05/01 01:40:48;;;;;;;16.30;8.63;;;9.50;99.90;;;;;;4955983;28;20519;-75
2022/05/01 01:43:18;;;;;;;13.50;8.70;;;9.60;99.90;;;;;;4962638;28;20058;-74
2022/05/01 01:45:46;;;;;;;10.98;8.05;;;9.60;99.90;;;;;;4970749;28;20034;-75
2022/05/01 01:48:16;;;;;;;10.80;7.82;;;9.60;99.90;;;;;;4971184;28;20052;-74
2022/05/01 01:50:43;;;;;;;14.98;8.63;;;9.60;99.90;;;;;;4959559;28;20030;-75
2022/05/01 01:53:10;;;;;;;11.57;8.07;;;9.60;99.90;;;;;;4953357;28;20437;-74
2022/05/01 01:55:38;;;;;;;12.35;7.95;;;9.60;99.90;;;;;;4965953;28;20054;-75
2022/05/01 01:58:04;;;;;;;12.88;8.48;;;9.60;99.90;;;;;;4964227;28;20023;-75
2022/05/01 02:00:30;;;;;;;15.50;8.60;;;9.60;99.90;;;;;;4963434;28;20150;-73
2022/05/01 02:03:06;;;;;;;16.08;8.38;;;9.60;99.90;;;;;;4968279;28;20117;-74
2022/05/01 02:05:34;;;;;;;12.65;8.30;;;9.60;99.90;;;;;;4954132;28;20031;-74
2022/05/01 02:08:00;;;;;;;13.18;7.65;;;9.60;99.90;;;;;;4960849;28;20371;-74
2022/05/01 02:10:26;;;;;;;12.27;6.78;;;9.60;99.90;;;;;;4950523;28;20052;-74
2022/05/01 02:12:52;;;;;;;9.13;6.22;;;9.60;99.90;;;;;;4960641;28;20475;-74
2022/05/01 02:15:18;;;;;;;8.48;6.10;;;9.60;99.90;;;;;;4962434;28;20074;-74
2022/05/01 02:17:50;;;;;;;11.18;5.88;;;9.60;99.90;;;;;;4962821;28;20069;-74
2022/05/01 02:20:16;;;;;;;11.20;7.32;;;9.60;99.90;;;;;;4957803;28;20536;-74
2022/05/01 02:22:42;;;;;;;12.68;6.40;;;9.60;99.90;;;;;;4961128;28;22814;-74
2022/05/01 02:25:09;;;;;;;9.38;6.82;;;9.50;99.90;;;;;;4958598;28;20464;-74
2022/05/01 02:27:36;;;;;;;13.25;6.65;;;9.60;99.90;;;;;;4966107;28;20023;-74
2022/05/01 02:30:02;;;;;;;8.95;5.68;;;9.60;99.90;;;;;;4955360;28;20668;-74
2022/05/01 02:32:29;;;;;;;11.13;6.20;;;9.60;99.90;;;;;;4961684;28;20101;-74
2022/05/01 02:34:55;;;;;;;9.13;6.13;;;9.60;99.90;;;;;;4957567;28;20130;-75
2022/05/01 02:37:20;;;;;;;9.05;5.90;;;9.50;99.90;;;;;;4956643;28;20032;-74
2022/05/01 02:39:46;;;;;;;10.90;5.90;;;9.50;99.90;;;;;;4959181;28;20030;-74
2022/05/01 02:42:13;;;;;;;10.70;5.95;;;9.50;99.90;;;;;;4961268;28;20042;-75
2022/05/01 02:44:39;;;;;;;9.73;5.53;;;9.50;99.90;;;;;;4958512;28;20034;-74
2022/05/01 02:47:05;;;;;;;9.73;5.93;;;9.50;99.90;;;;;;4972659;28;20027;-75
2022/05/01 02:49:31;;;;;;;11.52;6.32;;;9.50;99.90;;;;;;4958235;28;20046;-74
2022/05/01 02:51:57;;;;;;;9.57;6.22;;;9.50;99.90;;;;;;4959941;28;20170;-74
2022/05/01 02:54:22;;;;;;;9.88;6.07;;;9.50;99.90;;;;;;4959059;28;20110;-73
2022/05/01 02:56:52;;;;;;;10.73;6.55;;;9.50;99.90;;;;;;4963503;28;20513;-74
2022/05/01 02:59:17;;;;;;;8.15;5.05;;;9.50;99.90;;;;;;4960598;28;20035;-75
2022/05/01 03:01:44;;;;;;;9.07;5.45;;;9.40;99.90;;;;;;4952764;28;20048;-74
2022/05/01 03:04:09;;;;;;;9.60;6.30;;;9.40;99.90;;;;;;4961757;28;20027;-74
2022/05/01 03:06:35;;;;;;;10.63;6.38;;;9.40;99.90;;;;;;4956913;28;20034;-74
2022/05/01 03:09:02;;;;;;;8.50;6.00;;;9.40;99.90;;;;;;4959908;28;20502;-74
2022/05/01 03:11:27;;;;;;;8.73;5.28;;;9.40;99.90;;;;;;4958892;28;20023;-74
2022/05/01 03:13:54;;;;;;;10.55;6.25;;;9.40;99.90;;;;;;4963562;28;20414;-75
2022/05/01 03:16:20;;;;;;;11.30;6.18;;;9.40;99.90;;;;;;4953614;28;20027;-75
2022/05/01 03:24:15;;;;;;;9.60;5.60;;;9.40;99.90;;;;;;4963250;28;20081;-74
2022/05/01 03:26:42;;;;;;;10.93;6.38;;;9.40;99.90;;;;;;4960507;28;20204;-74
2022/05/01 03:29:08;;;;;;;10.90;6.20;;;9.40;99.90;;;;;;4955236;28;20121;-74
2022/05/01 03:31:36;;;;;;;7.82;5.35;;;9.40;99.90;;;;;;4958801;28;20030;-73
2022/05/01 03:34:04;;;;;;;9.88;6.15;;;9.40;99.90;;;;;;4956353;28;20031;-74
2022/05/01 03:36:30;;;;;;;8.75;6.18;;;9.40;99.90;;;;;;4960544;28;20101;-74
2022/05/01 03:38:56;;;;;;;10.35;6.13;;;9.40;99.90;;;;;;4958535;28;20382;-74
2022/05/01 03:41:22;;;;;;;9.68;6.38;;;9.40;99.90;;;;;;4957772;28;20031;-75
2022/05/01 03:43:48;;;;;;;8.77;6.32;;;9.40;99.90;;;;;;4964893;28;20030;-74
2022/05/01 03:46:14;;;;;;;10.35;5.90;;;9.40;99.90;;;;;;4962784;28;20052;-74
2022/05/01 03:48:40;;;;;;;10.43;6.30;;;9.40;99.90;;;;;;4959775;28;20039;-74
2022/05/01 03:51:07;;;;;;;8.38;6.13;;;9.40;99.90;;;;;;4954953;28;20044;-74
2022/05/01 03:53:32;;;;;;;15.38;6.72;;;9.30;99.90;;;;;;4963963;28;20038;-74
2022/05/01 03:55:58;;;;;;;11.07;6.90;;;9.30;99.90;;;;;;4961628;28;20023;-75
2022/05/01 03:58:24;;;;;;;14.90;7.40;;;9.30;99.90;;;;;;4962903;28;20486;-74
2022/05/01 04:00:50;;;;;;;9.80;6.65;;;9.40;99.90;;;;;;4956336;28;20034;-74
2022/05/01 04:03:17;;;;;;;10.98;6.68;;;9.30;99.90;;;;;;4951241;28;20031;-74
2022/05/01 04:05:43;;;;;;;12.02;6.88;;;9.30;99.90;;;;;;4964694;28;20031;-74
2022/05/01 04:08:10;;;;;;;12.25;7.10;;;9.30;99.90;;;;;;4958568;28;20038;-74
2022/05/01 04:10:41;;;;;;;11.68;7.07;;;9.30;99.90;;;;;;4957881;28;20055;-74
2022/05/01 04:13:08;;;;;;;12.98;7.40;;;9.20;99.90;;;;;;4967631;28;20038;-74
2022/05/01 04:15:34;;;;;;;9.18;6.93;;;9.30;99.90;;;;;;4971096;28;20081;-74
2022/05/01 04:18:02;;;;;;;17.52;7.38;;;9.20;99.90;;;;;;4960629;28;20722;-74
2022/05/01 04:20:28;;;;;;;12.32;7.05;;;9.20;99.90;;;;;;4958481;28;20031;-74
2022/05/01 04:22:54;;;;;;;11.77;6.90;;;9.20;99.90;;;;;;4946057;28;20395;-74
2022/05/01 04:25:21;;;;;;;8.85;6.88;;;9.20;99.90;;;;;;4958679;28;20050;-74
2022/05/01 04:27:51;;;;;;;11.40;7.80;;;9.20;99.90;;;;;;4960975;28;20047;-74
2022/05/01 04:30:17;;;;;;;14.07;7.70;;;9.20;99.90;;;;;;4952865;28;20063;-74
2022/05/01 04:32:46;;;;;;;11.45;7.15;;;9.20;99.90;;;;;;4966771;28;20022;-74
2022/05/01 04:35:12;;;;;;;9.38;7.10;;;9.20;99.90;;;;;;4964085;28;20440;-75
2022/05/01 04:37:37;;;;;;;9.93;7.28;;;9.20;99.90;;;;;;4968454;28;20065;-74
2022/05/01 04:40:03;;;;;;;11.25;7.03;;;9.20;99.90;;;;;;4964725;28;20031;-73
2022/05/01 04:42:29;;;;;;;9.40;7.05;;;9.20;99.90;;;;;;4961058;28;20042;-74
2022/05/01 04:44:55;;;;;;;12.85;7.53;;;9.20;99.90;;;;;;4965461;28;20034;-75
2022/05/01 04:47:21;;;;;;;13.02;8.15;;;9.20;99.90;;;;;;4969964;28;20680;-74
2022/05/01 04:49:46;;;;;;;11.25;7.50;;;9.20;99.90;;;;;;4962446;28;20129;-74
2022/05/01 04:52:12;;;;;;;10.25;7.28;;;9.20;99.90;;;;;;4962372;28;20020;-74
2022/05/01 04:54:38;;;;;;;12.77;7.97;;;9.20;99.90;;;;;;4959887;28;20118;-73
2022/05/01 04:57:09;;;;;;;11.82;7.45;;;9.20;99.90;;;;;;4966771;28;20026;-74
2022/05/01 04:59:36;;;;;;;11.70;7.90;;;9.20;99.90;;;;;;4960228;28;20031;-74
2022/05/01 05:02:03;;;;;;;9.48;7.38;;;9.20;99.90;;;;;;4963631;28;20038;-73
2022/05/01 05:04:29;;;;;;;10.18;7.82;;;9.20;99.90;;;;;;4966547;28;20264;-74
2022/05/01 05:06:55;;;;;;;12.65;7.30;;;9.20;99.90;;;;;;4963907;28;20034;-74
2022/05/01 05:12:07;;;;;;;12.05;7.47;;;9.20;99.90;;;;;;4959157;28;20089;-74
2022/05/01 05:14:33;;;;;;;10.23;7.30;;;9.20;99.90;;;;;;4968090;28;20531;-74
2022/05/01 05:16:59;;;;;;;11.25;7.70;;;9.20;99.90;;;;;;4960006;28;20097;-74
2022/05/01 05:19:25;;;;;;;10.63;7.75;;;9.20;99.90;;;;;;4963014;28;20491;-75
2022/05/01 05:21:50;;;;;;;10.02;6.90;;;9.20;99.90;;;;;;4962978;28;20026;-74
2022/05/01 05:24:16;;;;;;;12.57;7.75;;;9.20;99.90;;;;;;4967410;28;20159;-74
2022/05/01 05:26:42;;;;;;;15.43;7.13;;;9.20;99.90;;;;;;4964831;28;20458;-75
2022/05/01 05:29:08;;;;;;;10.80;7.43;;;9.20;99.90;;;;;;4963280;28;20102;-74
2022/05/01 05:31:34;;;;;;;11.65;7.60;;;9.30;99.90;;;;;;4960396;28;20035;-74
2022/05/01 05:34:00;;;;;;;10.43;7.32;;;9.30;99.90;;;;;;4966050;28;20031;-74
2022/05/01 05:36:26;;;;;;;9.88;7.70;;;9.30;99.90;;;;;;4963812;28;20031;-74
2022/05/01 05:38:51;;;;;;;10.85;6.90;;;9.30;99.90;;;;;;4960075;28;20116;-73
2022/05/01 05:41:17;;;;;;;10.32;7.13;;;9.30;99.90;;;;;;4961224;28;20031;-74
2022/05/01 05:43:43;;;;;;;13.60;7.00;;;9.30;99.90;;;;;;4962648;28;20027;-74
2022/05/01 05:46:08;;;;;;;12.95;6.85;;;9.40;99.90;;;;;;4964997;28;20053;-74
2022/05/01 05:48:37;;;;;;;13.77;7.43;;;9.40;99.90;;;;;;4962600;28;20130;-74
2022/05/01 05:51:05;;;;;;;9.20;7.00;;;9.40;99.90;;;;;;4960715;28;20069;-73
2022/05/01 05:53:31;;;;;;;9.38;6.57;;;9.40;99.90;;;;;;4966990;28;20023;-75
2022/05/01 05:55:57;;;;;;;8.60;6.72;;;9.50;99.90;;;;;;4962357;28;20041;-75
2022/05/01 05:58:22;;;;;;;12.90;6.82;;;9.50;99.90;;;;;;4954905;28;20038;-74
2022/05/01 06:00:48;;;;;;;8.98;6.85;;;9.50;99.90;;;;;;4959473;28;20027;-74
2022/05/01 06:03:13;;;;;;;8.50;6.88;;;9.60;99.90;;;;;;4959519;28;20043;-74
2022/05/01 06:05:39;;;;;;;10.13;6.60;;;9.60;99.90;;;;;;4962877;28;20159;-74
2022/05/01 06:08:05;;;;;;;12.15;7.18;;;9.60;99.90;;;;;;4952350;28;20554;-78
2022/05/01 06:10:31;;;;;;;13.45;7.25;;;9.60;99.90;;;;;;4957126;28;20035;-77
2022/05/01 06:12:57;;;;;;;8.32;6.75;;;9.70;99.90;;;;;;4965648;28;20042;-77
2022/05/01 06:15:22;;;;;;;13.10;6.75;;;9.70;99.90;;;;;;4266286;28;10001517;-75
2022/05/01 06:17:50;;;;;;;9.60;6.65;;;9.70;99.90;;;;;;4942972;28;20074;-74
2022/05/01 06:20:15;;;;;;;9.45;6.43;;;9.70;99.90;;;;;;4942490;28;20463;-74
2022/05/01 06:22:41;;;;;;;9.85;6.70;;;9.70;99.90;;;;;;4940642;28;20141;-74
2022/05/01 06:25:07;;;;;;;20.13;7.50;;;;;;;;;;4939802;28;20046;-76
2022/05/01 06:27:33;;;;;;;12.90;6.88;;;;;;;;;;4939479;28;20041;-74
2022/05/01 06:29:59;;;;;;;12.60;6.97;;;9.60;99.90;;;;;;4943054;28;20031;-74
2022/05/01 06:32:25;;;;;;;11.95;7.32;;;9.60;99.90;;;;;;4944562;28;20038;-74
2022/05/01 06:34:52;;;;;;;11.75;7.05;;;9.60;99.90;;;;;;4935350;28;20113;-74
2022/05/01 06:37:17;;;;;;;11.95;6.97;;;9.70;99.90;;;;;;4941162;28;20050;-74
2022/05/01 06:39:43;;;;;;;16.30;7.35;;;9.70;99.90;;;;;;4942667;28;20210;-74
2022/05/01 06:42:09;;;;;;;10.55;6.82;;;9.70;99.90;;;;;;4945888;28;20426;-74
2022/05/01 06:44:35;;;;;;;13.52;6.85;;;9.70;99.90;;;;;;4942458;28;20053;-74
2022/05/01 06:47:02;;;;;;;11.05;7.45;;;9.70;99.90;;;;;;4943150;28;20039;-74
2022/05/01 06:49:27;;;;;;;12.45;7.28;;;9.70;99.90;;;;;;4952802;28;20925;-74
2022/05/01 06:51:53;;;;;;;11.50;7.10;;;9.70;99.90;;;;;;4945359;28;20035;-74
2022/05/01 06:54:18;;;;;;;11.48;6.70;;;9.70;99.90;;;;;;4956344;28;20118;-74
2022/05/01 06:56:44;;;;;;;11.25;6.95;;;9.70;99.90;;;;;;4950119;28;21039;-75
2022/05/01 06:59:11;;;;;;;11.20;6.65;;;9.70;99.90;;;;;;4953769;28;20037;-74
2022/05/01 07:01:37;;;;;;;11.48;7.05;;;9.70;99.90;;;;;;4952297;28;20026;-74
2022/05/01 07:04:03;;;;;;;11.48;7.47;;;9.70;99.90;;;;;;4961340;28;20086;-81
2022/05/01 07:06:28;;;;;;;11.18;6.82;;;9.70;99.90;;;;;;4959671;28;20039;-78
2022/05/01 07:08:54;;;;;;;10.15;7.07;;;9.70;99.90;;;;;;4961492;28;20030;-76
2022/05/01 07:11:20;;;;;;;11.75;7.10;;;9.70;99.90;;;;;;4951566;28;20027;-79
2022/05/01 07:13:45;;;;;;;11.93;7.30;;;9.70;99.90;;;;;;4965049;28;20524;-81
2022/05/01 07:16:11;;;;;;;10.13;6.72;;;9.70;99.90;;;;;;4954155;28;20540;-79
2022/05/01 07:18:36;;;;;;;13.10;7.68;;;9.70;99.90;;;;;;4953222;28;20090;-77
2022/05/01 07:21:02;;;;;;;11.50;6.78;;;9.70;99.90;;;;;;4953458;28;20034;-78
2022/05/01 07:23:28;;;;;;;14.38;7.82;;;9.70;99.90;;;;;;4956864;28;20023;-78
2022/05/01 07:25:54;;;;;;;13.68;7.40;;;9.70;99.90;;;;;;4957343;28;20495;-76
2022/05/01 07:28:19;;;;;;;10.95;7.65;;;9.60;99.90;;;;;;4948551;28;20037;-77
2022/05/01 07:30:45;;;;;;;10.68;7.32;;;9.70;99.90;;;;;;4954662;28;20074;-76
2022/05/01 07:33:11;;;;;;;12.45;7.78;;;9.60;99.90;;;;;;4957176;28;20066;-74
2022/05/01 07:35:37;;;;;;;10.90;7.80;;;9.70;99.90;;;;;;4952781;28;20022;-77
2022/05/01 07:38:04;;;;;;;12.05;7.70;;;9.60;99.90;;;;;;4960376;28;20031;-73
2022/05/01 07:40:29;;;;;;;10.73;7.50;;;9.60;99.90;;;;;;4957182;28;20798;-74
2022/05/01 07:42:55;;;;;;;10.23;8.23;;;9.70;99.90;;;;;;4968950;28;20145;-74
2022/05/01 07:45:20;;;;;;;11.23;7.47;;;9.70;99.90;;;;;;4958774;28;20031;-74
2022/05/01 07:47:46;;;;;;;11.05;7.90;;;9.70;99.90;;;;;;4963416;28;20051;-74
2022/05/01 07:50:13;;;;;;;10.55;7.53;;;9.70;99.90;;;;;;4951891;28;20137;-74
2022/05/01 07:52:39;;;;;;;13.38;8.02;;;9.70;99.90;;;;;;4964726;28;20026;-74
2022/05/01 07:55:06;;;;;;;10.23;7.57;;;9.70;99.90;;;;;;4983719;28;20034;-74
2022/05/01 07:57:32;;;;;;;11.40;7.85;;;9.70;99.90;;;;;;4969706;28;20113;-74
2022/05/01 07:59:57;;;;;;;16.08;8.57;;;9.70;99.90;;;;;;4964477;28;20240;-74
2022/05/01 08:02:23;;;;;;;13.40;8.30;;;9.80;99.90;;;;;;4960169;28;20042;-74
2022/05/01 08:04:48;;;;;;;14.68;8.95;;;9.80;99.90;;;;;;4955232;28;20399;-73
2022/05/01 08:07:17;;;;;;;12.30;8.32;;;9.80;99.90;;;;;;4953437;28;20034;-73
2022/05/01 08:09:43;;;;;;;11.90;7.72;;;9.80;99.90;;;;;;4951347;28;20031;-73
2022/05/01 08:12:09;;;;;;;13.32;8.68;;;9.90;99.90;;;;;;4970153;28;20031;-75
2022/05/01 08:14:35;;;;;;;14.55;8.35;;;9.90;99.90;;;;;;4968911;28;20379;-73
2022/05/01 08:17:00;;;;;;;12.90;8.48;;;10.00;99.90;;;;;;4967719;28;20039;-75
2022/05/01 08:22:10;;;;;;;10.88;8.02;;;10.00;99.90;;;;;;4970085;28;20181;-73
2022/05/01 08:24:35;;;;;;;15.15;8.57;;;10.10;99.90;;;;;;4951292;28;20114;-75
2022/05/01 08:27:05;;;;;;;12.77;8.50;;;10.10;99.90;;;;;;4963197;28;20035;-73
2022/05/01 08:29:36;;;;;;;12.85;9.10;;;10.10;99.90;;;;;;4967101;28;20039;-73
2022/05/01 08:32:03;;;;;;;13.93;8.60;;;10.20;99.90;;;;;;4969523;28;20022;-73
2022/05/01 08:34:28;;;;;;;12.07;8.60;;;10.30;99.90;;;;;;4966333;28;20023;-73
2022/05/01 08:36:55;;;;;;;16.02;8.85;;;10.40;99.90;;;;;;4967270;28;20506;-73
2022/05/01 08:39:20;;;;;;;12.85;9.40;;;10.50;99.90;;;;;;4958491;28;20054;-73
2022/05/01 08:41:46;;;;;;;12.93;8.90;;;10.70;99.90;;;;;;4948656;28;20069;-73
2022/05/01 08:44:16;;;;;;;11.98;8.73;;;10.80;99.90;;;;;;4962151;28;20034;-73
2022/05/01 08:47:02;;;;;;;10.52;8.52;;;11.00;99.90;;;;;;4977576;28;20038;-73
2022/05/01 08:49:31;;;;;;;11.95;8.23;;;11.10;99.90;;;;;;4981808;28;20130;-73
2022/05/01 08:52:00;;;;;;;9.75;8.00;;;11.20;99.90;;;;;;4960952;28;20462;-74
2022/05/01 08:54:28;;;;;;;12.00;7.95;;;11.40;99.90;;;;;;4959037;28;20579;-73
2022/05/01 08:56:54;;;;;;;12.65;8.32;;;11.40;99.90;;;;;;4963073;28;20031;-73
2022/05/01 08:59:20;;;;;;;10.82;8.38;;;11.40;99.90;;;;;;4949885;29;20027;-74
2022/05/01 09:01:46;;;;;;;13.52;8.02;;;11.40;99.90;;;;;;4950764;28;20039;-73
2022/05/01 09:04:14;;;;;;;10.95;8.20;;;11.50;99.90;;;;;;4967716;28;20313;-74
2022/05/01 09:06:43;;;;;;;10.50;8.15;;;11.70;99.90;;;;;;4962514;28;20039;-73
2022/05/01 09:09:20;;;;;;;10.18;8.18;;;11.80;99.90;;;;;;4961326;28;20049;-74
2022/05/01 09:14:35;;;;;;;12.48;7.60;;;12.30;99.90;;;;;;4944881;28;20114;-73
2022/05/01 09:17:09;;;;;;;14.20;8.43;;;12.50;99.90;;;;;;4954106;28;20031;-74
2022/05/01 09:19:35;;;;;;;12.45;7.82;;;12.60;99.90;;;;;;4949253;29;20086;-73
2022/05/01 09:22:01;;;;;;;12.50;8.15;;;12.60;99.90;;;;;;4960997;28;20043;-74
2022/05/01 09:24:28;;;;;;;12.38;8.43;;;12.60;99.90;;;;;;4952707;28;20027;-73
2022/05/01 09:26:55;;;;;;;12.93;8.15;;;12.50;99.90;;;;;;4949913;28;20042;-74
2022/05/01 09:29:22;;;;;;;11.85;8.50;;;12.60;99.90;;;;;;4957942;28;20035;-74
2022/05/01 09:31:50;;;;;;;13.90;7.75;;;12.60;99.90;;;;;;4953471;28;20028;-74
2022/05/01 09:34:28;;;;;;;10.48;7.72;;;12.70;99.90;;;;;;4963219;28;20027;-74
2022/05/01 09:36:54;;;;;;;12.25;8.35;;;12.80;99.90;;;;;;4951273;28;20034;-73
2022/05/01 09:39:23;;;;;;;12.82;8.18;;;12.90;99.90;;;;;;4948963;28;20058;-74
2022/05/01 09:41:50;;;;;;;11.35;7.68;;;13.00;99.90;;;;;;4953810;28;20394;-74
2022/05/01 09:44:17;;;;;;;10.93;7.97;;;13.10;99.90;;;;;;4965496;28;20031;-74
2022/05/01 09:46:47;;;;;;;13.70;8.35;;;13.10;99.90;;;;;;4962897;28;20053;-73
2022/05/01 09:49:14;;;;;;;12.27;7.65;;;13.20;99.90;;;;;;4962054;28;20145;-73
2022/05/01 09:51:46;;;;;;;11.10;8.10;;;13.30;99.90;;;;;;4969594;28;20252;-74
2022/05/01 09:54:21;;;;;;;14.50;8.73;;;13.20;99.90;;;;;;4948092;28;20019;-74
2022/05/01 09:56:51;;;;;;;12.32;7.93;;;;;;;;;;4963196;28;20031;-74
2022/05/01 09:59:18;;;;;;;21.95;8.02;;;;;;;;;;4964714;28;20028;-73
2022/05/01 10:01:57;;;;;;;12.40;7.93;;;;;;;;;;4964481;28;20022;-74
2022/05/01 10:04:23;;;;;;;14.70;8.60;;;13.70;99.90;;;;;;4965121;28;20023;-74
2022/05/01 10:06:53;;;;;;;12.02;7.78;;;13.70;99.90;;;;;;4955585;28;20240;-74
2022/05/01 10:09:20;;;;;;;11.52;8.38;;;13.70;99.90;;;;;;4954872;28;20034;-73
2022/05/01 10:11:47;;;;;;;18.25;8.60;;;13.70;99.90;;;;;;4949556;28;20023;-74
2022/05/01 10:14:13;;;;;;;10.45;7.82;;;13.80;99.90;;;;;;4948206;29;20055;-74
2022/05/01 10:16:41;;;;;;;12.18;8.27;;;13.80;99.90;;;;;;4967683;28;20630;-74
2022/05/01 10:19:09;;;;;;;14.52;7.75;;;13.90;99.90;;;;;;4974478;28;20118;-74
2022/05/01 10:21:36;;;;;;;10.48;7.68;;;14.00;99.90;;;;;;4962910;28;20034;-73
2022/05/01 10:24:02;;;;;;;12.40;7.72;;;14.20;99.90;;;;;;4948337;28;20070;-74
2022/05/01 10:26:32;;;;;;;10.40;6.75;;;14.30;99.90;;;;;;4957498;28;20038;-73
2022/05/01 10:29:28;;;;;;;11.13;7.50;;;14.40;99.90;;;;;;4950241;28;20027;-74
2022/05/01 10:32:21;;;;;;;10.40;6.97;;;14.30;99.90;;;;;;4964743;28;20018;-73
2022/05/01 10:35:07;;;;;;;11.23;6.72;;;14.30;99.90;;;;;;4948198;29;20463;-74
2022/05/01 10:38:17;;;;;;;12.27;6.95;;;14.40;99.90;;;;;;4953700;28;20523;-73
2022/05/01 10:40:49;;;;;;;11.48;6.70;;;14.60;99.90;;;;;;4951631;28;20380;-73
2022/05/01 10:43:26;;;;;;;9.93;6.78;;;14.70;99.90;;;;;;4960094;28;20024;-73
2022/05/01 10:45:53;;;;;;;16.23;6.55;;;14.80;99.90;;;;;;4947791;29;20059;-73
2022/05/01 10:48:34;;;;;;;12.20;6.78;;;15.00;99.90;;;;;;4960187;28;20035;-74
2022/05/01 10:51:49;;;;;;;12.25;6.55;;;15.30;99.90;;;;;;4964618;28;20318;-73
2022/05/01 10:54:17;;;;;;;;;;;15.30;99.90;;;;;;4953166;28;20030;-73
2022/05/01 10:56:48;;;;;;;11.75;6.90;;;15.40;99.90;;;;;;4953832;28;19914;-74
2022/05/01 10:59:29;;;;;;;15.13;6.53;;;15.50;99.90;;;;;;4959291;28;20034;-73
2022/05/01 11:01:56;;;;;;;8.35;6.68;;;15.50;99.90;;;;;;4961042;28;20034;-73
2022/05/01 11:04:22;;;;;;;10.40;7.07;;;15.40;99.90;;;;;;4966506;28;20030;-74
2022/05/01 11:06:52;;;;;;;10.18;6.75;;;;;;;;;;4962259;28;20209;-74
2022/05/01 11:09:19;;;;;;;13.23;7.18;;;15.60;99.90;;;;;;4950232;28;20042;-75
2022/05/01 11:11:45;;;;;;;13.60;6.55;;;15.60;99.90;;;;;;4964322;28;20039;-74
2022/05/01 11:14:13;;;;;;;8.70;7.07;;;15.50;99.90;;;;;;4949744;28;20023;-77
2022/05/01 11:16:52;;;;;;;8.60;6.88;;;15.40;99.90;;;;;;4969826;28;20069;-78
2022/05/01 11:19:17;;;;;;;10.43;6.50;;;15.50;99.90;;;;;;4962392;28;20390;-75
2022/05/01 11:21:49;;;;;;;10.38;7.28;;;15.70;99.90;;;;;;4953401;28;20039;-77
2022/05/01 11:24:15;;;;;;;12.15;6.82;;;15.70;99.90;;;;;;4961103;28;20390;-77
2022/05/01 11:27:11;;;;;;;11.15;6.80;;;15.70;99.90;;;;;;4951417;28;20474;-76
2022/05/01 11:29:37;;;;;;;11.20;6.72;;;15.60;99.90;;;;;;4264685;28;10000890;-77
2022/05/01 11:32:20;;;;;;;11.98;7.15;;;;;;;;;;4939778;28;20248;-76
2022/05/01 11:34:54;;;;;;;9.23;6.72;;;15.40;99.90;;;;;;4945961;28;20050;-80
2022/05/01 11:37:21;;;;;;;12.82;6.78;;;15.40;99.90;;;;;;4954863;28;20026;-83
2022/05/01 11:39:48;;;;;;;8.77;6.85;;;15.60;99.90;;;;;;4955704;28;20442;-83
2022/05/01 11:42:25;;;;;;;9.57;6.32;;;15.60;99.90;;;;;;4938824;28;20495;-78
2022/05/01 11:44:52;;;;;;;10.57;6.22;;;15.60;99.90;;;;;;4942535;28;20648;-80
2022/05/01 11:47:18;;;;;;;10.00;6.85;;;15.90;99.90;;;;;;4943350;28;20039;-81
2022/05/01 11:49:45;;;;;;;9.13;7.15;;;16.00;99.90;;;;;;4938540;28;20074;-81
2022/05/01 11:52:11;;;;;;;9.80;7.00;;;16.10;99.90;;;;;;4953971;28;20323;-75
2022/05/01 11:54:40;;;;;;;9.48;6.95;;;16.10;99.90;;;;;;4956796;28;20064;-82
2022/05/01 12:03:00;;;;;;;10.38;7.00;;;15.80;99.90;;;;;;4923265;28;20039;-78
2022/05/01 12:05:25;;;;;;;8.63;7.03;;;15.90;99.90;;;;;;4953745;28;20495;-80
2022/05/01 12:07:56;;;;;;;11.43;6.55;;;16.10;99.90;;;;;;4959083;28;20031;-79
2022/05/01 12:10:28;;;;;;;12.70;6.85;;;16.40;99.90;;;;;;4956700;28;20038;-83
2022/05/01 12:12:53;;;;;;;11.57;6.97;;;16.50;99.90;;;;;;4958170;28;20035;-79
2022/05/01 12:15:19;;;;;;;15.90;7.38;;;16.20;99.90;;;;;;4962983;28;20228;-81
2022/05/01 12:17:45;;;;;;;10.68;7.20;;;15.90;99.90;;;;;;4960686;28;20038;-84
2022/05/01 12:20:11;;;;;;;11.43;7.50;;;15.70;99.90;;;;;;4962560;28;20031;-83
2022/05/01 12:22:37;;;;;;;12.93;7.30;;;15.70;99.90;;;;;;4955075;28;20045;-83
2022/05/01 12:25:06;;;;;;;10.05;7.03;;;16.00;99.90;;;;;;4962009;28;20583;-83
2022/05/01 12:27:33;;;;;;;10.82;7.07;;;16.30;99.90;;;;;;4953764;28;20027;-84
2022/05/01 12:30:01;;;;;;;12.35;6.20;;;16.40;99.90;;;;;;4967026;28;20026;-84
2022/05/01 12:32:28;;;;;;;10.90;6.72;;;16.50;99.90;;;;;;4960126;28;20054;-78
2022/05/01 12:34:57;;;;;;;10.95;7.00;;;16.30;99.90;;;;;;4967659;28;20442;-80
2022/05/01 12:37:30;;;;;;;11.65;7.05;;;16.20;99.90;;;;;;4961593;28;20023;-76
2022/05/01 12:40:12;;;;;;;10.50;6.80;;;15.90;99.90;;;;;;4963419;28;20426;-77
2022/05/01 12:45:39;;;;;;;10.40;6.50;;;16.00;99.90;;;;;;4954621;28;20042;-83
2022/05/01 12:48:10;;;;;;;12.15;6.88;;;16.50;99.90;;;;;;4959506;28;20192;-85
2022/05/01 12:50:38;;;;;;;10.43;6.75;;;16.50;99.90;;;;;;4953886;28;20063;-81
2022/05/01 12:53:24;;;;;;;11.10;6.88;;;16.40;99.90;;;;;;4963468;28;20518;-78
2022/05/01 12:55:51;;;;;;;14.48;7.55;;;16.30;99.90;;;;;;4949675;28;20039;-79
2022/05/01 12:58:31;;;;;;;12.35;6.93;;;16.20;99.90;;;;;;4956325;28;20071;-83
2022/05/01 13:00:58;;;;;;;8.50;6.72;;;16.20;99.90;;;;;;4959219;28;20633;-82
2022/05/01 13:03:36;;;;;;;10.20;6.68;;;16.30;99.90;;;;;;4964550;28;20069;-81
2022/05/01 13:06:08;;;;;;;10.73;7.13;;;16.30;99.90;;;;;;4966058;28;20323;-83
2022/05/01 13:08:39;;;;;;;8.55;7.38;;;16.20;99.90;;;;;;4962642;28;20577;-81
2022/05/01 13:11:12;;;;;;;13.27;7.28;;;16.10;99.90;;;;;;4955705;28;20043;-81
2022/05/01 13:13:46;;;;;;;10.07;6.68;;;15.90;99.90;;;;;;4961887;28;20015;-82
2022/05/01 13:16:17;;;;;;;10.75;7.07;;;15.80;99.90;;;;;;4968330;28;20142;-80
2022/05/01 13:18:44;;;;;;;9.20;6.60;;;15.50;99.90;;;;;;4967019;28;20081;-78
2022/05/01 13:21:10;;;;;;;11.35;7.38;;;15.40;99.90;;;;;;4960095;28;20538;-80